weather.gov     
National Weather Service

Terminal Aerodrome Forecast
NWS Homepage
This page is being discontinued on March 12, 2014.
The same data is available at this site. Please update your bookmarks.
Thank you, and we apologize for the inconvenience.
Please send an email to SR-SRH.Webmaster@noaa.gov with any concerns.


Current Version
Previous Version:    01  02  03  04  05  06  07  08  09  10  11  12  13  14  15  16  17  18  19  20  21  22  23  24  25  26  27  28  29  30  
   31  32  33  
[Printable]
482
FTAK31 PAJN 181100
TAFAPG
TAF
PAPG 181137Z 1812/1912 00000KT P6SM -SHRA FEW020 OVC030
     FM181900 07005KT P6SM VCSH BKN035 OVC060
     FM182200 08006KT P6SM SCT040 BKN080
     FM190300 12005KT P6SM SCT100
     FM190900 11004KT P6SM SCT050 BKN080
      AMD LTD TO CLD VIS AND WIND 1812/1815=


U.S. Dept. of Commerce
NOAA National Weather Service
1325 East West Highway
Silver Spring, MD 20910
E-mail: w-nws.webmaster@noaa.gov
Page last modified: May 16, 2007
NATIONAL WEATHER SERVICE: for Safety, for Work, for Fun - FOR LIFE